createdAt,value
2022-10-28T04:01:03.282Z,9.91
2022-10-28T04:02:02.913Z,9.90
2022-10-28T04:03:02.834Z,9.89
2022-10-28T04:04:02.811Z,9.86
2022-10-28T04:05:02.814Z,9.89
2022-10-28T04:06:02.792Z,9.89
2022-10-28T04:07:02.840Z,9.94
2022-10-28T04:08:02.751Z,10.01
2022-10-28T04:09:02.778Z,10.02
2022-10-28T04:10:02.736Z,10.02
2022-10-28T04:11:02.711Z,10.02
2022-10-28T04:12:02.783Z,10.01
2022-10-28T04:13:02.741Z,10.01
2022-10-28T04:14:09.711Z,9.97
2022-10-28T04:15:02.673Z,10.01
2022-10-28T04:16:02.661Z,10.02
2022-10-28T04:17:02.639Z,10.02
2022-10-28T04:18:02.666Z,10.01
2022-10-28T04:19:02.701Z,10.01
2022-10-28T04:20:02.610Z,10.01
2022-10-28T04:21:02.587Z,9.97
2022-10-28T04:22:02.577Z,9.97
2022-10-28T04:23:03.219Z,9.97
2022-10-28T04:24:02.544Z,9.97
2022-10-28T04:25:02.595Z,9.99
2022-10-28T04:26:02.514Z,9.96
2022-10-28T04:27:02.505Z,9.97
2022-10-28T04:28:02.516Z,9.97
2022-10-28T04:29:02.554Z,9.94
2022-10-28T04:30:02.504Z,9.93
2022-10-28T04:31:02.475Z,9.94
2022-10-28T04:32:02.464Z,9.96
2022-10-28T04:33:02.444Z,9.96
2022-10-28T04:34:02.499Z,9.94
2022-10-28T04:35:02.433Z,9.96
2022-10-28T04:36:02.401Z,9.93
2022-10-28T04:37:02.395Z,9.97
2022-10-28T04:38:02.372Z,9.97
2022-10-28T04:39:02.398Z,9.99
2022-10-28T04:40:02.342Z,10.02
2022-10-28T04:41:02.332Z,10.05
2022-10-28T04:42:02.332Z,10.07
2022-10-28T04:43:02.311Z,10.09
2022-10-28T04:44:02.294Z,10.11
2022-10-28T04:45:02.348Z,10.14
2022-10-28T04:46:02.274Z,10.18
2022-10-28T04:47:02.262Z,10.20
2022-10-28T04:48:02.252Z,10.25
2022-10-28T04:49:02.263Z,10.27
2022-10-28T04:50:02.300Z,10.32
2022-10-28T04:51:02.262Z,10.33
2022-10-28T04:52:02.199Z,10.34
2022-10-28T04:53:02.228Z,10.38
2022-10-28T04:54:02.195Z,10.40
2022-10-28T04:55:02.162Z,10.45
2022-10-28T04:56:02.147Z,10.52
2022-10-28T04:57:02.300Z,10.53
2022-10-28T04:58:02.135Z,10.55
2022-10-28T04:59:02.126Z,10.55
2022-10-28T05:00:02.099Z,10.59
2022-10-28T05:01:02.129Z,10.64
2022-10-28T05:02:02.185Z,10.66
2022-10-28T05:03:02.097Z,10.68
2022-10-28T05:04:03.075Z,10.73
2022-10-28T05:05:02.074Z,10.78
2022-10-28T05:06:02.374Z,10.82
2022-10-28T05:07:02.015Z,10.85
2022-10-28T05:08:02.005Z,10.85
2022-10-28T05:09:02.038Z,10.84
2022-10-28T05:10:01.974Z,10.82
2022-10-28T05:11:01.965Z,10.78
2022-10-28T05:12:02.021Z,10.76
2022-10-28T05:13:01.934Z,10.73
2022-10-28T05:14:01.925Z,10.70
2022-10-28T05:15:02.725Z,10.68
2022-10-28T05:16:01.917Z,10.66
2022-10-28T05:17:01.893Z,10.64
2022-10-28T05:18:01.905Z,10.59
2022-10-28T05:19:01.944Z,10.56
2022-10-28T05:20:01.899Z,10.56
2022-10-28T05:21:01.890Z,10.53
2022-10-28T05:22:01.895Z,10.52
2022-10-28T05:23:01.814Z,10.48
2022-10-28T05:24:01.852Z,10.45
2022-10-28T05:25:01.796Z,10.45
2022-10-28T05:26:01.772Z,10.42
2022-10-28T05:27:01.944Z,10.41
2022-10-28T05:28:01.751Z,10.41
2022-10-28T05:29:01.740Z,10.41
2022-10-28T05:30:01.745Z,10.41
2022-10-28T05:31:01.723Z,10.36
2022-10-28T05:32:01.749Z,10.36
2022-10-28T05:33:01.988Z,10.33
2022-10-28T05:34:01.691Z,10.32
2022-10-28T05:35:01.662Z,10.30
2022-10-28T05:36:01.656Z,10.29
2022-10-28T05:37:01.752Z,10.27
2022-10-28T05:38:01.739Z,10.26
2022-10-28T05:39:01.620Z,10.27
2022-10-28T05:40:01.657Z,10.26
2022-10-28T05:41:01.588Z,10.26
2022-10-28T05:42:01.577Z,10.23
2022-10-28T05:43:01.598Z,10.22
2022-10-28T05:44:01.627Z,10.22
2022-10-28T05:45:01.555Z,10.18
2022-10-28T05:46:01.540Z,10.18
2022-10-28T05:47:01.672Z,10.17
2022-10-28T05:48:01.505Z,10.17
2022-10-28T05:49:01.489Z,10.17
2022-10-28T05:50:01.546Z,10.18
2022-10-28T05:51:01.493Z,10.22
2022-10-28T05:52:01.455Z,10.25
2022-10-28T05:53:01.443Z,10.26
2022-10-28T05:54:01.455Z,10.29
2022-10-28T05:55:01.426Z,10.29
2022-10-28T05:56:01.511Z,10.32
2022-10-28T05:57:01.508Z,10.36
2022-10-28T05:58:01.385Z,10.51
2022-10-28T05:59:01.374Z,10.56
2022-10-28T06:00:01.414Z,10.60
2022-10-28T06:01:01.354Z,10.60
2022-10-28T06:02:01.704Z,10.60
2022-10-28T06:03:01.323Z,10.59
2022-10-28T06:04:01.371Z,10.55
2022-10-28T06:05:01.293Z,10.53
2022-10-28T06:06:01.282Z,10.51
2022-10-28T06:07:01.363Z,10.48
2022-10-28T06:08:01.435Z,10.47
2022-10-28T06:09:01.249Z,10.44
2022-10-28T06:10:01.239Z,10.42
2022-10-28T06:10:59.685Z,10.41
2022-10-28T06:11:59.827Z,10.38
2022-10-28T06:12:59.667Z,10.38
2022-10-28T06:13:59.744Z,10.36
2022-10-28T06:14:59.650Z,10.38
2022-10-28T06:15:59.638Z,10.40
2022-10-28T06:16:59.710Z,10.41
2022-10-28T06:17:59.639Z,10.42
2022-10-28T06:18:59.599Z,10.42
2022-10-28T06:19:59.626Z,10.42
2022-10-28T06:20:59.572Z,10.44
2022-10-28T06:21:59.684Z,10.42
2022-10-28T06:22:59.554Z,10.44
2022-10-28T06:23:59.547Z,10.45
2022-10-28T06:24:59.527Z,10.45
2022-10-28T06:25:59.571Z,10.48
2022-10-28T06:26:59.613Z,10.51
2022-10-28T06:27:59.488Z,10.48
2022-10-28T06:28:59.486Z,10.48
2022-10-28T06:29:59.468Z,10.45
2022-10-28T06:30:59.459Z,10.44
2022-10-28T06:31:59.559Z,10.41
2022-10-28T06:32:59.440Z,10.41
2022-10-28T06:33:59.419Z,10.41
2022-10-28T06:34:59.411Z,10.38
2022-10-28T06:35:59.398Z,10.40
2022-10-28T06:36:59.441Z,10.38
2022-10-28T06:37:59.463Z,10.40
2022-10-28T06:38:59.371Z,10.41
2022-10-28T06:39:59.372Z,10.44
2022-10-28T06:40:59.334Z,10.44
2022-10-28T06:41:59.325Z,10.47
2022-10-28T06:42:59.313Z,10.48
2022-10-28T06:43:59.480Z,10.51
2022-10-28T06:44:59.289Z,10.51
2022-10-28T06:45:59.298Z,10.51
2022-10-28T06:47:00.862Z,10.51
2022-10-28T06:48:00.763Z,10.51
2022-10-28T06:49:00.751Z,10.52
2022-10-28T06:50:00.827Z,10.52
2022-10-28T06:51:00.737Z,10.52
2022-10-28T06:52:00.834Z,10.53
2022-10-28T06:53:00.696Z,10.55
2022-10-28T06:54:00.687Z,10.56
2022-10-28T06:55:00.666Z,10.59
2022-10-28T06:56:03.200Z,10.60
2022-10-28T06:57:00.763Z,10.66
2022-10-28T06:58:00.639Z,10.68
2022-10-28T06:59:00.620Z,10.73
2022-10-28T07:00:00.632Z,10.79
2022-10-28T07:01:00.869Z,10.84
2022-10-28T07:02:00.785Z,10.88
2022-10-28T07:03:00.905Z,10.94
2022-10-28T07:04:00.602Z,11.00
2022-10-28T07:05:00.553Z,11.06
2022-10-28T07:06:00.593Z,11.10
2022-10-28T07:07:00.595Z,11.17
2022-10-28T07:08:00.524Z,11.19
2022-10-28T07:09:00.514Z,11.22
2022-10-28T07:10:00.498Z,11.29
2022-10-28T07:11:00.486Z,11.33
2022-10-28T07:12:04.926Z,11.39
2022-10-28T07:13:01.541Z,11.46
2022-10-28T07:14:00.482Z,11.51
2022-10-28T07:15:00.429Z,11.57
2022-10-28T07:16:00.446Z,11.61
2022-10-28T07:17:00.432Z,11.64
2022-10-28T07:18:00.410Z,11.67
2022-10-28T07:19:00.464Z,11.73
2022-10-28T07:20:00.383Z,11.78
2022-10-28T07:21:00.359Z,11.80
2022-10-28T07:22:00.419Z,11.83
2022-10-28T07:23:00.350Z,11.90
2022-10-28T07:24:00.338Z,11.95
2022-10-28T07:25:00.363Z,11.98
2022-10-28T07:26:00.307Z,12.01
2022-10-28T07:27:00.310Z,12.02
2022-10-28T07:28:00.285Z,12.01
2022-10-28T07:29:00.255Z,12.05
2022-10-28T07:30:00.244Z,12.02
2022-10-28T07:31:00.319Z,12.05
2022-10-28T07:32:00.316Z,12.07
2022-10-28T07:33:00.207Z,12.07
2022-10-28T07:34:00.218Z,12.07
2022-10-28T07:35:00.186Z,12.09
2022-10-28T07:36:00.216Z,12.10
2022-10-28T07:37:00.157Z,12.16
2022-10-28T07:38:00.145Z,12.19
2022-10-28T07:39:00.146Z,12.23
2022-10-28T07:40:00.122Z,12.24
2022-10-28T07:41:00.111Z,12.29
2022-10-28T07:42:00.230Z,12.34
2022-10-28T07:43:00.076Z,12.39
2022-10-28T07:44:00.083Z,12.49
2022-10-28T07:45:00.042Z,12.53
2022-10-28T07:46:00.038Z,12.57
2022-10-28T07:47:00.233Z,12.59
2022-10-28T07:48:00.024Z,12.62
2022-10-28T07:49:00.073Z,12.65
2022-10-28T07:49:59.984Z,12.60
2022-10-28T07:50:59.973Z,12.62
2022-10-28T07:51:59.956Z,12.64
2022-10-28T07:53:00.064Z,12.62
2022-10-28T07:53:59.921Z,12.57
2022-10-28T07:54:59.910Z,12.53
2022-10-28T07:55:59.926Z,12.59
2022-10-28T07:56:59.952Z,12.60
2022-10-28T07:57:59.896Z,12.64
2022-10-28T07:58:59.910Z,12.70
2022-10-28T07:59:59.847Z,12.77
2022-10-28T08:00:59.848Z,12.82
2022-10-28T08:01:59.994Z,12.86
2022-10-28T08:02:59.800Z,12.85
2022-10-28T08:03:59.813Z,12.85
2022-10-28T08:05:00.617Z,12.86
2022-10-28T08:05:59.809Z,12.92
2022-10-28T08:06:59.915Z,12.97
2022-10-28T08:07:59.729Z,13.07
2022-10-28T08:08:59.719Z,13.12
2022-10-28T08:09:59.701Z,13.20
2022-10-28T08:10:59.783Z,13.23
2022-10-28T08:11:59.660Z,13.30
2022-10-28T08:12:59.647Z,13.38
2022-10-28T08:13:59.665Z,13.42
2022-10-28T08:14:59.627Z,13.46
2022-10-28T08:15:59.603Z,13.48
2022-10-28T08:16:59.652Z,13.54
2022-10-28T08:17:59.590Z,13.59
2022-10-28T08:19:01.136Z,13.63
2022-10-28T08:19:59.547Z,13.66
2022-10-28T08:21:59.648Z,13.75
2022-10-28T08:23:01.777Z,13.77
2022-10-28T08:23:59.504Z,13.81
2022-10-28T08:24:59.510Z,13.85
2022-10-28T08:25:59.485Z,13.92
2022-10-28T08:26:59.528Z,13.95
2022-10-28T08:27:59.444Z,13.96
2022-10-28T08:28:59.473Z,14.00
2022-10-28T08:29:59.422Z,14.03
2022-10-28T08:31:08.177Z,14.04
2022-10-28T08:32:00.403Z,14.09
2022-10-28T08:32:59.388Z,14.15
2022-10-28T08:33:59.368Z,14.20
2022-10-28T08:34:59.392Z,14.24
2022-10-28T08:35:59.340Z,14.25
2022-10-28T08:36:59.466Z,14.28
2022-10-28T08:37:59.322Z,14.27
2022-10-28T08:38:59.301Z,14.28
2022-10-28T08:39:59.291Z,14.28
2022-10-28T08:40:59.302Z,14.27
2022-10-28T08:41:59.275Z,14.24
2022-10-28T08:42:59.250Z,14.25
2022-10-28T08:43:59.244Z,14.28
2022-10-28T08:44:59.269Z,14.32
2022-10-28T08:45:59.215Z,14.36
2022-10-28T08:46:59.241Z,14.40
2022-10-28T08:47:59.398Z,14.42
2022-10-28T08:48:59.170Z,14.45
2022-10-28T08:49:59.163Z,14.47
2022-10-28T08:50:59.333Z,14.51
2022-10-28T08:51:59.164Z,14.57
2022-10-28T08:52:59.122Z,14.61
2022-10-28T08:53:59.111Z,14.65
2022-10-28T08:54:59.101Z,14.72
2022-10-28T08:55:59.097Z,14.77
2022-10-28T08:56:59.700Z,14.80
2022-10-28T08:57:59.062Z,14.84
2022-10-28T08:58:59.041Z,14.89
2022-10-28T08:59:59.068Z,14.92
2022-10-28T09:00:59.050Z,14.95
2022-10-28T09:01:59.129Z,15.01
2022-10-28T09:02:59.161Z,15.13
2022-10-28T09:04:05.993Z,15.21
2022-10-28T09:04:58.967Z,15.31
2022-10-28T09:05:58.952Z,15.41
2022-10-28T09:06:58.942Z,15.46
2022-10-28T09:07:58.924Z,15.51
2022-10-28T09:08:59.180Z,15.56
2022-10-28T09:09:58.901Z,15.50
2022-10-28T09:10:58.910Z,15.53
2022-10-28T09:11:58.944Z,15.59
2022-10-28T09:12:58.893Z,15.67
2022-10-28T09:13:58.841Z,15.78
2022-10-28T09:14:58.891Z,15.87
2022-10-28T09:15:58.846Z,16.00
2022-10-28T09:16:58.893Z,16.08
2022-10-28T09:17:58.799Z,16.04
2022-10-28T09:18:58.784Z,16.07
2022-10-28T09:19:58.811Z,16.05
2022-10-28T09:20:58.820Z,16.12
2022-10-28T09:21:58.774Z,16.20
2022-10-28T09:22:58.743Z,16.30
2022-10-28T09:23:58.736Z,16.41
2022-10-28T09:24:58.720Z,16.48
2022-10-28T09:25:58.703Z,16.56
2022-10-28T09:26:58.731Z,16.58
2022-10-28T09:27:58.688Z,16.67
2022-10-28T09:28:59.179Z,16.75
2022-10-28T09:29:58.677Z,16.78
2022-10-28T09:30:58.630Z,16.81
2022-10-28T09:31:58.645Z,16.82
2022-10-28T09:32:58.640Z,16.83
2022-10-28T09:33:58.597Z,16.81
2022-10-28T09:34:58.581Z,16.79
2022-10-28T09:35:58.579Z,16.81
2022-10-28T09:36:58.597Z,16.83
2022-10-28T09:37:58.608Z,16.91
2022-10-28T09:38:58.722Z,16.93
2022-10-28T09:39:58.529Z,16.93
2022-10-28T09:40:58.509Z,16.91
2022-10-28T09:41:58.510Z,16.93
2022-10-28T09:42:58.493Z,16.85
2022-10-28T09:43:58.459Z,16.81
2022-10-28T09:44:58.654Z,16.71
2022-10-28T09:45:58.449Z,16.67
2022-10-28T09:46:58.429Z,16.75
2022-10-28T09:47:58.418Z,16.82
2022-10-28T09:48:58.407Z,16.85
2022-10-28T09:49:58.388Z,16.85
2022-10-28T09:50:59.316Z,16.86
2022-10-28T09:51:58.450Z,16.98
2022-10-28T09:52:58.349Z,17.07
2022-10-28T09:53:58.338Z,17.07
2022-10-28T09:54:58.368Z,16.98
2022-10-28T09:55:58.385Z,16.88
2022-10-28T09:56:58.359Z,16.83
2022-10-28T09:57:58.324Z,16.75
2022-10-28T09:58:58.276Z,16.63
2022-10-28T09:59:58.259Z,16.58
2022-10-28T10:00:58.250Z,16.64
2022-10-28T10:01:58.492Z,16.70
2022-10-28T10:02:58.339Z,16.79
2022-10-28T10:03:58.208Z,16.88
2022-10-28T10:04:58.378Z,16.96
2022-10-28T10:05:58.198Z,17.06
2022-10-28T10:06:58.190Z,17.16
2022-10-28T10:07:58.297Z,17.30
2022-10-28T10:08:58.216Z,17.40
2022-10-28T10:09:58.152Z,17.49
2022-10-28T10:10:58.118Z,17.55
2022-10-28T10:11:58.118Z,17.64
2022-10-28T10:12:58.544Z,17.71
2022-10-28T10:14:05.261Z,17.82
2022-10-28T10:14:58.104Z,18.02
2022-10-28T10:15:58.049Z,18.25
2022-10-28T10:16:58.039Z,18.45
2022-10-28T10:17:58.027Z,18.66
2022-10-28T10:18:58.024Z,18.82
2022-10-28T10:19:58.630Z,19.06
2022-10-28T10:20:59.937Z,19.22
2022-10-28T10:21:57.987Z,19.36
2022-10-28T10:22:57.983Z,19.55
2022-10-28T10:23:57.949Z,19.69
2022-10-28T10:24:58.015Z,19.73
2022-10-28T10:25:57.980Z,19.80
2022-10-28T10:26:57.930Z,19.91
2022-10-28T10:27:57.908Z,20.02
2022-10-28T10:28:57.911Z,20.24
2022-10-28T10:29:57.880Z,20.36
2022-10-28T10:30:57.865Z,20.36
2022-10-28T10:31:57.949Z,20.36
2022-10-28T10:32:57.846Z,20.43
2022-10-28T10:33:57.877Z,20.54
2022-10-28T10:34:57.856Z,20.59
2022-10-28T10:36:00.086Z,20.62
2022-10-28T10:36:57.890Z,20.70
2022-10-28T10:37:57.857Z,20.64
2022-10-28T10:38:57.768Z,20.57
2022-10-28T10:39:57.808Z,20.50
2022-10-28T10:40:57.763Z,20.47
2022-10-28T10:41:57.718Z,20.52
2022-10-28T10:43:09.965Z,20.47
2022-10-28T10:43:58.845Z,20.50
2022-10-28T10:44:57.687Z,20.51
2022-10-28T10:45:57.807Z,20.55
2022-10-28T10:47:00.634Z,20.54
2022-10-28T10:47:57.648Z,20.54
2022-10-28T10:48:57.640Z,20.51
2022-10-28T10:49:57.617Z,20.42
2022-10-28T10:50:57.616Z,20.21
2022-10-28T10:51:57.653Z,19.94
2022-10-28T10:52:57.776Z,19.77
2022-10-28T10:53:57.574Z,19.73
2022-10-28T10:54:57.560Z,19.55
2022-10-28T10:55:57.567Z,19.46
2022-10-28T10:57:57.829Z,19.37
2022-10-28T10:58:57.518Z,19.40
2022-10-28T10:59:57.495Z,19.47
2022-10-28T11:00:57.651Z,19.51
2022-10-28T11:01:57.577Z,19.61
2022-10-28T11:02:57.484Z,19.68
2022-10-28T11:04:01.086Z,19.77
2022-10-28T11:04:57.479Z,19.76
2022-10-28T11:06:18.489Z,19.78
2022-10-28T11:06:58.408Z,19.84
2022-10-28T11:07:57.403Z,19.92
2022-10-28T11:08:57.376Z,19.86
2022-10-28T11:09:57.395Z,19.78
2022-10-28T11:10:57.354Z,19.76
2022-10-28T11:11:57.339Z,19.66
2022-10-28T11:12:57.472Z,19.61
2022-10-28T11:13:57.304Z,19.65
2022-10-28T11:14:57.305Z,19.77
2022-10-28T11:15:57.326Z,19.91
2022-10-28T11:16:57.274Z,20.02
2022-10-28T11:17:57.510Z,20.16
2022-10-28T11:18:57.246Z,20.24
2022-10-28T11:19:57.238Z,20.36
2022-10-28T11:20:57.250Z,20.42
2022-10-28T11:21:57.253Z,20.52
2022-10-28T11:22:57.447Z,20.59
2022-10-28T11:23:57.189Z,20.57
2022-10-28T11:24:57.177Z,20.57
2022-10-28T11:25:57.166Z,20.52
2022-10-28T11:26:57.148Z,20.55
2022-10-28T11:27:58.716Z,20.57
2022-10-28T11:28:57.125Z,20.72
2022-10-28T11:29:57.104Z,20.88
2022-10-28T11:30:57.188Z,21.09
2022-10-28T11:31:57.169Z,21.25
2022-10-28T11:33:08.208Z,21.44
2022-10-28T11:33:58.132Z,21.47
2022-10-28T11:34:57.043Z,21.54
2022-10-28T11:35:57.027Z,21.58
2022-10-28T11:36:57.036Z,21.62
2022-10-28T11:37:57.015Z,21.68
2022-10-28T11:38:57.006Z,21.62
2022-10-28T11:39:57.416Z,21.77
2022-10-28T11:40:56.977Z,21.83
2022-10-28T11:41:56.971Z,21.79
2022-10-28T11:42:57.551Z,21.83
2022-10-28T11:44:00.896Z,21.84
2022-10-28T11:44:57.965Z,21.74
2022-10-28T11:45:56.916Z,21.72
2022-10-28T11:47:00.932Z,21.54
2022-10-28T11:47:57.995Z,21.40
2022-10-28T11:48:56.883Z,21.35
2022-10-28T11:49:56.859Z,21.29
2022-10-28T11:50:56.898Z,21.28
2022-10-28T11:51:56.844Z,21.34
2022-10-28T11:52:56.822Z,21.35
2022-10-28T11:53:56.802Z,21.38
2022-10-28T11:54:56.793Z,21.42
2022-10-28T11:55:56.774Z,21.38
2022-10-28T11:56:56.843Z,21.42
2022-10-28T11:57:57.157Z,21.52
2022-10-28T11:58:56.741Z,21.58
2022-10-28T11:59:56.743Z,21.61
2022-10-28T12:00:56.713Z,21.67
2022-10-28T12:01:57.095Z,21.68
2022-10-28T12:02:57.158Z,21.58
2022-10-28T12:03:56.673Z,21.53
2022-10-28T12:04:56.661Z,21.47
2022-10-28T12:05:56.645Z,21.49
2022-10-28T12:06:56.754Z,21.43
2022-10-28T12:07:56.644Z,21.29
2022-10-28T12:08:56.742Z,21.21
2022-10-28T12:09:56.599Z,21.29
2022-10-28T12:10:56.583Z,21.27
2022-10-28T12:11:56.605Z,21.19
2022-10-28T12:12:57.027Z,21.17
2022-10-28T12:13:56.598Z,21.12
2022-10-28T12:14:56.592Z,21.13
2022-10-28T12:15:56.522Z,21.24
2022-10-28T12:16:56.511Z,21.22
2022-10-28T12:17:56.712Z,21.16
2022-10-28T12:18:56.501Z,21.16
2022-10-28T12:19:56.472Z,21.17
2022-10-28T12:20:56.526Z,21.12
2022-10-28T12:21:56.451Z,21.09
2022-10-28T12:22:56.897Z,21.07
2022-10-28T12:23:56.431Z,21.06
2022-10-28T12:24:56.447Z,21.03
2022-10-28T12:25:56.391Z,20.91
2022-10-28T12:26:56.441Z,20.87
2022-10-28T12:27:56.374Z,20.85
2022-10-28T12:28:56.360Z,20.89
2022-10-28T12:29:56.342Z,20.92
2022-10-28T12:30:56.338Z,20.82
2022-10-28T12:31:56.378Z,20.72
2022-10-28T12:32:56.670Z,20.66
2022-10-28T12:33:56.298Z,20.72
2022-10-28T12:34:56.281Z,20.73
2022-10-28T12:35:56.261Z,20.72
2022-10-28T12:36:56.311Z,20.72
2022-10-28T12:37:56.592Z,20.84
2022-10-28T12:38:56.402Z,20.95
2022-10-28T12:39:56.211Z,21.04
2022-10-28T12:40:56.213Z,21.12
2022-10-28T12:41:56.227Z,21.21
2022-10-28T12:42:56.577Z,21.31
2022-10-28T12:43:56.166Z,21.40
2022-10-28T12:44:56.392Z,21.54
2022-10-28T12:45:56.135Z,21.69
2022-10-28T12:46:56.181Z,21.79
2022-10-28T12:47:56.365Z,21.84
2022-10-28T12:48:56.112Z,21.94
2022-10-28T12:49:56.111Z,22.12
2022-10-28T12:50:56.110Z,22.28
2022-10-28T12:51:56.101Z,22.46
2022-10-28T12:52:56.059Z,22.60
2022-10-28T12:53:56.029Z,22.68
2022-10-28T12:54:56.021Z,22.76
2022-10-28T12:55:56.086Z,22.80
2022-10-28T12:56:56.119Z,22.83
2022-10-28T12:57:56.111Z,22.86
2022-10-28T12:58:56.023Z,22.91
2022-10-28T12:59:55.963Z,22.91
2022-10-28T13:00:55.993Z,22.97
2022-10-28T13:01:56.060Z,22.97
2022-10-28T13:02:56.438Z,22.94
2022-10-28T13:03:55.907Z,22.95
2022-10-28T13:04:55.897Z,22.88
2022-10-28T13:05:55.879Z,22.76
2022-10-28T13:06:55.912Z,22.64
2022-10-28T13:07:58.547Z,22.57
2022-10-28T13:09:55.852Z,22.68
2022-10-28T13:10:55.827Z,22.67
2022-10-28T13:11:55.806Z,22.72
2022-10-28T13:12:56.123Z,22.76
2022-10-28T13:13:55.854Z,22.75
2022-10-28T13:14:55.885Z,22.76
2022-10-28T13:15:55.748Z,22.83
2022-10-28T13:16:55.747Z,22.80
2022-10-28T13:17:56.319Z,22.79
2022-10-28T13:18:55.719Z,22.83
2022-10-28T13:19:55.717Z,22.92
2022-10-28T13:20:55.847Z,22.86
2022-10-28T13:21:55.668Z,22.80
2022-10-28T13:22:56.124Z,22.82
2022-10-28T13:23:55.674Z,22.86
2022-10-28T13:24:55.647Z,22.90
2022-10-28T13:25:55.626Z,22.95
2022-10-28T13:26:55.819Z,23.01
2022-10-28T13:27:56.080Z,22.95
2022-10-28T13:28:55.586Z,22.94
2022-10-28T13:29:55.567Z,22.95
2022-10-28T13:30:55.565Z,22.82
2022-10-28T13:31:55.615Z,22.82
2022-10-28T13:32:55.613Z,22.85
2022-10-28T13:33:55.538Z,22.82
2022-10-28T13:34:55.514Z,22.90
2022-10-28T13:35:55.632Z,22.94
2022-10-28T13:36:57.538Z,23.01
2022-10-28T13:37:55.861Z,23.10
2022-10-28T13:38:55.520Z,23.09
2022-10-28T13:39:55.454Z,23.10
2022-10-28T13:41:55.425Z,23.19
2022-10-28T13:42:55.702Z,23.16
2022-10-28T13:43:55.395Z,23.17
2022-10-28T13:44:55.738Z,23.17
2022-10-28T13:45:55.364Z,23.13
2022-10-28T13:46:55.353Z,23.12
2022-10-28T13:47:55.348Z,23.15
2022-10-28T13:48:55.480Z,23.23
2022-10-28T13:49:55.313Z,23.33
2022-10-28T13:50:55.342Z,23.39
2022-10-28T13:51:55.291Z,23.43
2022-10-28T13:52:55.619Z,23.50
2022-10-28T13:53:55.283Z,23.50
2022-10-28T13:54:55.253Z,23.50
2022-10-28T13:55:55.240Z,23.32
2022-10-28T13:56:55.337Z,23.17
2022-10-28T13:57:55.637Z,23.00
2022-10-28T13:58:55.222Z,22.88
2022-10-28T13:59:55.183Z,22.88
2022-10-28T14:00:55.284Z,22.88
2022-10-28T14:02:08.052Z,22.85
2022-10-28T14:02:56.567Z,22.76
2022-10-28T14:03:55.131Z,22.61
2022-10-28T14:04:55.123Z,22.49
2022-10-28T14:05:55.148Z,22.39
2022-10-28T14:06:55.128Z,22.33
2022-10-28T14:07:55.327Z,22.39
2022-10-28T14:08:55.162Z,22.45
2022-10-28T14:09:55.075Z,22.46
2022-10-28T14:10:55.044Z,22.42
2022-10-28T14:11:55.039Z,22.43
2022-10-28T14:12:55.452Z,22.37
2022-10-28T14:13:55.001Z,22.35
2022-10-28T14:14:55.061Z,22.37
2022-10-28T14:16:54.995Z,22.45
2022-10-28T14:18:00.948Z,22.42
2022-10-28T14:18:55.959Z,22.43
2022-10-28T14:19:54.931Z,22.52
2022-10-28T14:20:55.160Z,22.57
2022-10-28T14:21:59.200Z,22.57
2022-10-28T14:22:55.902Z,22.60
2022-10-28T14:23:54.887Z,22.61
2022-10-28T14:24:54.883Z,22.60
2022-10-28T14:25:54.924Z,22.67
2022-10-28T14:26:54.900Z,22.64
2022-10-28T14:27:55.349Z,22.64
2022-10-28T14:28:54.820Z,22.62
2022-10-28T14:29:54.913Z,22.57
2022-10-28T14:30:54.788Z,22.45
2022-10-28T14:31:54.782Z,22.27
2022-10-28T14:32:55.484Z,22.15
2022-10-28T14:33:54.763Z,22.07
2022-10-28T14:34:54.737Z,22.05
2022-10-28T14:35:54.731Z,22.10
2022-10-28T14:36:54.711Z,22.15
2022-10-28T14:37:54.918Z,22.18
2022-10-28T14:38:54.679Z,22.20
2022-10-28T14:39:54.677Z,22.22
2022-10-28T14:40:54.669Z,22.25
2022-10-28T14:41:54.709Z,22.28
2022-10-28T14:42:54.647Z,22.30
2022-10-28T14:43:55.007Z,22.30
2022-10-28T14:44:54.618Z,22.31
2022-10-28T14:45:54.598Z,22.27
2022-10-28T14:46:54.617Z,22.27
2022-10-28T14:47:54.827Z,22.28
2022-10-28T14:48:54.570Z,22.27
2022-10-28T14:49:54.605Z,22.25
2022-10-28T14:50:54.536Z,22.21
2022-10-28T14:51:54.562Z,22.18
2022-10-28T14:52:54.508Z,22.18
2022-10-28T14:53:54.511Z,22.18
2022-10-28T14:54:54.481Z,22.10
2022-10-28T14:55:54.534Z,22.03
2022-10-28T14:56:54.466Z,22.00
2022-10-28T14:57:54.733Z,21.94
2022-10-28T14:58:54.449Z,21.86
2022-10-28T14:59:54.417Z,21.71
2022-10-28T15:00:54.518Z,21.58
2022-10-28T15:01:54.602Z,21.52
2022-10-28T15:02:54.388Z,21.50
2022-10-28T15:03:54.378Z,21.47
2022-10-28T15:04:54.376Z,21.42
2022-10-28T15:05:54.351Z,21.35
2022-10-28T15:06:54.346Z,21.31
2022-10-28T15:07:54.571Z,21.24
2022-10-28T15:08:54.311Z,21.22
2022-10-28T15:09:54.374Z,21.21
2022-10-28T15:10:54.287Z,21.17
2022-10-28T15:11:54.285Z,21.17
2022-10-28T15:12:54.634Z,21.10
2022-10-28T15:13:54.373Z,21.01
2022-10-28T15:14:54.225Z,20.92
2022-10-28T15:15:54.223Z,20.82
2022-10-28T15:16:54.231Z,20.72
2022-10-28T15:17:54.195Z,20.66
2022-10-28T15:18:54.195Z,20.57
2022-10-28T15:19:54.596Z,20.52
2022-10-28T15:20:54.155Z,20.51
2022-10-28T15:21:59.128Z,20.48
2022-10-28T15:22:55.423Z,20.39
2022-10-28T15:23:54.181Z,20.33
2022-10-28T15:24:54.099Z,20.23
2022-10-28T15:25:54.124Z,20.16
2022-10-28T15:26:54.079Z,20.02
2022-10-28T15:27:54.390Z,19.94
2022-10-28T15:28:54.055Z,19.87
2022-10-28T15:29:54.036Z,19.86
2022-10-28T15:30:54.022Z,19.87
2022-10-28T15:31:54.052Z,19.86
2022-10-28T15:32:54.002Z,19.86
2022-10-28T15:33:54.051Z,19.84
2022-10-28T15:34:53.974Z,19.86
2022-10-28T15:35:53.992Z,19.84
2022-10-28T15:36:54.072Z,19.83
2022-10-28T15:37:54.418Z,19.83
2022-10-28T15:38:53.912Z,19.86
2022-10-28T15:39:54.932Z,19.83
2022-10-28T15:40:54.024Z,19.81
2022-10-28T15:41:53.880Z,19.80
2022-10-28T15:42:53.967Z,19.78
2022-10-28T15:43:53.861Z,19.76
2022-10-28T15:44:53.843Z,19.74
2022-10-28T15:45:53.821Z,19.69
2022-10-28T15:46:54.453Z,19.65
2022-10-28T15:47:54.070Z,19.58
2022-10-28T15:48:53.791Z,19.51
2022-10-28T15:49:53.784Z,19.47
2022-10-28T15:50:53.784Z,19.43
2022-10-28T15:51:53.751Z,19.37
2022-10-28T15:52:54.093Z,19.37
2022-10-28T15:53:53.913Z,19.39
2022-10-28T15:54:53.719Z,19.41
2022-10-28T15:56:06.928Z,19.44
2022-10-28T15:56:54.710Z,19.48
2022-10-28T15:57:53.695Z,19.54
2022-10-28T15:58:53.739Z,19.59
2022-10-28T15:59:53.873Z,19.63
2022-10-28T16:00:53.819Z,19.65
2022-10-28T16:01:53.799Z,19.63
2022-10-28T16:02:54.150Z,19.61
2022-10-28T16:03:53.601Z,19.59
2022-10-28T16:04:53.621Z,19.56
2022-10-28T16:05:53.580Z,19.68
2022-10-28T16:06:53.615Z,19.71
2022-10-28T16:07:53.887Z,19.66
2022-10-28T16:08:53.533Z,19.65
2022-10-28T16:09:53.519Z,19.61
2022-10-28T16:10:53.568Z,19.55
2022-10-28T16:11:53.505Z,19.46
2022-10-28T16:12:53.481Z,19.32
2022-10-28T16:13:53.480Z,19.22
2022-10-28T16:14:53.460Z,19.14
2022-10-28T16:15:53.450Z,19.07
2022-10-28T16:16:53.531Z,19.00
2022-10-28T16:17:53.746Z,18.92
2022-10-28T16:18:53.400Z,18.85
2022-10-28T16:19:53.449Z,18.80
2022-10-28T16:20:53.406Z,18.78
2022-10-28T16:21:53.388Z,18.75
2022-10-28T16:22:53.364Z,18.70
2022-10-28T16:23:53.338Z,18.67
2022-10-28T16:24:53.480Z,18.66
2022-10-28T16:25:53.309Z,18.66
2022-10-28T16:26:53.298Z,18.66
2022-10-28T16:27:53.463Z,18.66
2022-10-28T16:28:53.268Z,18.63
2022-10-28T16:29:53.250Z,18.63
2022-10-28T16:30:53.370Z,18.62
2022-10-28T16:31:53.243Z,18.62
2022-10-28T16:32:53.592Z,18.62
2022-10-28T16:33:53.206Z,18.60
2022-10-28T16:34:53.546Z,18.60
2022-10-28T16:35:53.183Z,18.58
2022-10-28T16:36:53.217Z,18.57
2022-10-28T16:37:55.534Z,18.54
2022-10-28T16:38:53.138Z,18.51
2022-10-28T16:39:53.134Z,18.47
2022-10-28T16:40:53.182Z,18.44
2022-10-28T16:41:53.099Z,18.37
2022-10-28T16:42:53.510Z,18.35
2022-10-28T16:43:53.245Z,18.29
2022-10-28T16:44:53.076Z,18.25
2022-10-28T16:45:53.047Z,18.21
2022-10-28T16:46:53.218Z,18.17
2022-10-28T16:47:53.385Z,18.14
2022-10-28T16:48:53.018Z,18.11
2022-10-28T16:49:57.147Z,18.08
2022-10-28T16:50:52.977Z,18.07
2022-10-28T16:51:52.984Z,18.02
2022-10-28T16:52:53.042Z,18.00
2022-10-28T16:53:53.041Z,17.96
2022-10-28T16:54:52.966Z,17.87
2022-10-28T16:55:52.967Z,17.68
2022-10-28T16:56:52.905Z,17.56
2022-10-28T16:57:53.184Z,17.52
2022-10-28T16:58:53.274Z,17.51